createdAt,value
2018-07-12T00:00:04.005Z,16.20
2018-07-12T00:05:06.182Z,16.30
2018-07-12T00:10:08.362Z,16.30
2018-07-12T00:15:10.541Z,16.30
2018-07-12T00:20:13.008Z,16.40
2018-07-12T00:25:15.177Z,16.40
2018-07-12T00:30:17.931Z,16.40
2018-07-12T00:40:22.672Z,16.40
2018-07-12T00:45:24.841Z,16.40
2018-07-12T00:50:27.057Z,16.30
2018-07-12T00:55:29.356Z,16.30
2018-07-12T01:00:31.540Z,16.30
2018-07-12T01:05:33.728Z,16.30
2018-07-12T01:10:35.928Z,16.20
2018-07-12T01:15:38.291Z,16.20
2018-07-12T01:20:40.533Z,16.10
2018-07-12T01:25:42.706Z,16.10
2018-07-12T01:30:44.894Z,16.00
2018-07-12T01:35:48.109Z,16.00
2018-07-12T01:40:50.431Z,16.00
2018-07-12T01:45:52.624Z,16.00
2018-07-12T01:50:54.799Z,16.00
2018-07-12T01:55:56.988Z,16.00
2018-07-12T02:00:59.171Z,16.00
2018-07-12T02:06:01.521Z,16.00
2018-07-12T02:11:03.684Z,16.00
2018-07-12T02:16:05.898Z,15.90
2018-07-12T02:21:08.152Z,15.80
2018-07-12T02:26:10.404Z,15.80
2018-07-12T02:31:12.667Z,15.70
2018-07-12T02:36:14.805Z,15.70
2018-07-12T02:41:17.002Z,15.70
2018-07-12T02:46:19.200Z,15.70
2018-07-12T02:51:21.527Z,15.80
2018-07-12T02:56:23.700Z,15.70
2018-07-12T03:01:25.857Z,15.70
2018-07-12T03:06:28.112Z,15.70
2018-07-12T03:16:32.968Z,15.50
2018-07-12T03:21:35.157Z,15.50
2018-07-12T03:26:37.359Z,15.50
2018-07-12T03:31:39.534Z,15.30
2018-07-12T03:36:41.710Z,15.30
2018-07-12T03:41:43.909Z,15.20
2018-07-12T03:46:46.089Z,15.20
2018-07-12T03:51:48.277Z,15.10
2018-07-12T03:56:50.463Z,15.10
2018-07-12T04:01:52.706Z,15.00
2018-07-12T04:06:55.164Z,15.10
2018-07-12T04:11:57.352Z,15.00
2018-07-12T04:16:59.533Z,15.10
2018-07-12T04:22:01.785Z,15.10
2018-07-12T04:27:03.965Z,15.10
2018-07-12T04:32:06.141Z,15.00
2018-07-12T04:37:08.292Z,15.10
2018-07-12T04:42:10.453Z,15.10
2018-07-12T04:47:12.674Z,15.20
2018-07-12T04:52:14.865Z,15.10
2018-07-12T04:57:17.089Z,15.10
2018-07-12T05:02:19.289Z,15.10
2018-07-12T05:07:21.479Z,15.10
2018-07-12T05:12:23.874Z,15.10
2018-07-12T05:17:26.041Z,15.10
2018-07-12T05:22:29.151Z,15.10
2018-07-12T05:27:31.353Z,15.00
2018-07-12T05:32:33.579Z,15.00
2018-07-12T05:37:36.850Z,15.10
2018-07-12T05:42:39.896Z,15.10
2018-07-12T05:47:43.015Z,15.10
2018-07-12T05:52:47.210Z,15.40
2018-07-12T05:57:51.727Z,15.80
2018-07-12T06:02:55.442Z,16.00
2018-07-12T06:07:58.529Z,16.20
2018-07-12T06:13:01.628Z,16.30
2018-07-12T06:18:05.037Z,16.50
2018-07-12T06:23:08.117Z,16.60
2018-07-12T06:28:11.261Z,16.60
2018-07-12T06:33:14.653Z,16.90
2018-07-12T06:38:19.186Z,17.30
2018-07-12T06:43:22.232Z,17.40
2018-07-12T06:48:25.334Z,17.50
2018-07-12T06:53:28.389Z,17.60
2018-07-12T06:58:31.653Z,17.70
2018-07-12T07:03:34.711Z,17.60
2018-07-12T07:08:37.849Z,17.50
2018-07-12T07:13:40.929Z,17.40
2018-07-12T07:18:43.992Z,17.50
2018-07-12T07:23:47.060Z,17.50
2018-07-12T07:28:50.152Z,17.60
2018-07-12T07:33:53.231Z,17.80
2018-07-12T07:38:56.298Z,17.80
2018-07-12T07:43:59.345Z,17.90
2018-07-12T07:49:02.500Z,17.80
2018-07-12T07:54:05.904Z,18.00
2018-07-12T07:59:08.999Z,18.20
2018-07-12T08:04:12.071Z,18.10
2018-07-12T08:09:15.347Z,18.30
2018-07-12T08:14:18.476Z,18.40
2018-07-12T08:19:21.521Z,18.40
2018-07-12T08:24:24.580Z,18.50
2018-07-12T08:29:27.636Z,18.20
2018-07-12T08:34:30.748Z,18.00
2018-07-12T08:39:33.857Z,17.90
2018-07-12T08:44:36.944Z,17.70
2018-07-12T08:49:40.044Z,17.60
2018-07-12T08:54:43.224Z,17.60
2018-07-12T08:59:46.282Z,17.40
2018-07-12T09:04:49.412Z,17.40
2018-07-12T09:09:52.500Z,17.40
2018-07-12T09:14:55.694Z,17.40
2018-07-12T09:19:58.765Z,17.40
2018-07-12T09:25:01.993Z,17.40
2018-07-12T09:30:05.356Z,17.30
2018-07-12T09:35:08.388Z,17.30
2018-07-12T09:40:11.477Z,17.30
2018-07-12T09:45:14.552Z,17.20
2018-07-12T09:50:17.619Z,17.20
2018-07-12T09:55:20.677Z,17.20
2018-07-12T10:00:29.365Z,17.30
2018-07-12T10:06:41.460Z,17.30
2018-07-12T10:11:49.910Z,17.30
2018-07-12T10:16:59.480Z,17.20
2018-07-12T10:22:02.662Z,17.30
2018-07-12T10:27:05.821Z,17.60
2018-07-12T10:32:08.966Z,17.70
2018-07-12T10:42:14.969Z,17.70
2018-07-12T10:47:18.012Z,17.90
2018-07-12T10:52:21.070Z,18.00
2018-07-12T10:57:24.179Z,18.20
2018-07-12T11:02:27.219Z,18.50
2018-07-12T11:07:30.296Z,18.30
2018-07-12T11:12:33.636Z,18.40
2018-07-12T11:17:36.862Z,18.50
2018-07-12T11:22:39.924Z,18.60
2018-07-12T11:27:42.999Z,18.70
2018-07-12T11:32:46.034Z,18.70
2018-07-12T11:37:49.113Z,18.60
2018-07-12T11:43:22.988Z,18.60
2018-07-12T11:48:26.335Z,18.50
2018-07-12T11:53:29.376Z,18.40
2018-07-12T11:58:32.538Z,18.30
2018-07-12T12:03:35.592Z,18.40
2018-07-12T12:08:38.780Z,18.40
2018-07-12T12:13:41.848Z,18.40
2018-07-12T12:18:44.912Z,18.50
2018-07-12T12:23:48.052Z,18.50
2018-07-12T12:28:51.192Z,18.50
2018-07-12T12:33:54.465Z,18.50
2018-07-12T12:38:57.603Z,18.50
2018-07-12T12:44:00.652Z,18.60
2018-07-12T12:49:03.703Z,18.60
2018-07-12T12:54:06.771Z,18.70
2018-07-12T12:59:09.863Z,18.70
2018-07-12T13:04:13.013Z,18.90
2018-07-12T13:09:16.092Z,18.90
2018-07-12T13:14:19.191Z,18.70
2018-07-12T13:19:22.228Z,18.50
2018-07-12T13:24:25.304Z,18.50
2018-07-12T13:29:28.370Z,18.50
2018-07-12T13:34:31.446Z,18.50
2018-07-12T13:39:34.467Z,18.50
2018-07-12T13:44:37.536Z,18.60
2018-07-12T13:49:40.569Z,18.60
2018-07-12T13:54:43.653Z,18.60
2018-07-12T13:59:46.674Z,18.50
2018-07-12T14:04:49.692Z,18.40
2018-07-12T14:09:52.759Z,18.20
2018-07-12T14:14:55.965Z,18.00
2018-07-12T14:19:59.015Z,17.90
2018-07-12T14:25:02.119Z,17.70
2018-07-12T14:30:05.631Z,17.60
2018-07-12T14:35:08.667Z,17.70
2018-07-12T14:40:11.758Z,17.70
2018-07-12T14:45:14.891Z,17.80
2018-07-12T14:50:17.967Z,18.00
2018-07-12T14:55:21.033Z,18.10
2018-07-12T15:00:24.178Z,18.20
2018-07-12T15:05:27.240Z,18.20
2018-07-12T15:10:30.299Z,18.20
2018-07-12T15:15:33.484Z,18.20
2018-07-12T15:20:36.546Z,18.10
2018-07-12T15:25:39.592Z,18.10
2018-07-12T15:30:42.756Z,18.10
2018-07-12T15:35:45.889Z,18.10
2018-07-12T15:40:49.011Z,18.10
2018-07-12T15:45:52.103Z,18.10
2018-07-12T15:50:55.155Z,18.00
2018-07-12T15:55:58.228Z,17.90
2018-07-12T16:01:01.348Z,17.80
2018-07-12T16:06:04.421Z,17.70
2018-07-12T16:11:07.494Z,17.60
2018-07-12T16:16:10.552Z,17.60
2018-07-12T16:21:13.648Z,17.60
2018-07-12T16:26:16.710Z,17.60
2018-07-12T16:31:19.992Z,17.60
2018-07-12T16:36:23.049Z,17.60
2018-07-12T16:41:26.079Z,17.70
2018-07-12T16:46:29.112Z,17.70
2018-07-12T16:51:32.400Z,17.80
2018-07-12T16:56:36.461Z,17.80
2018-07-12T17:01:39.664Z,17.90
2018-07-12T17:06:43.738Z,18.00
2018-07-12T17:11:46.922Z,18.00
2018-07-12T17:16:50.085Z,18.20
2018-07-12T17:21:53.321Z,18.10
2018-07-12T17:26:56.459Z,18.10
2018-07-12T17:31:59.567Z,18.10
2018-07-12T17:37:02.669Z,18.00
2018-07-12T17:42:05.846Z,18.10
2018-07-12T17:47:08.907Z,18.10
2018-07-12T17:52:11.942Z,18.10
2018-07-12T17:57:15.021Z,18.10
2018-07-12T18:02:18.051Z,18.10
2018-07-12T18:07:21.068Z,18.10
2018-07-12T18:12:24.116Z,18.10
2018-07-12T18:17:27.355Z,18.10
2018-07-12T18:22:30.476Z,18.00
2018-07-12T18:27:33.617Z,18.00
2018-07-12T18:32:36.980Z,17.90
2018-07-12T18:43:08.319Z,17.80
2018-07-12T18:48:11.400Z,17.80
2018-07-12T18:53:14.652Z,17.80
2018-07-12T18:58:17.894Z,17.80
2018-07-12T19:03:20.991Z,17.80
2018-07-12T19:08:24.158Z,17.80
2018-07-12T19:13:27.314Z,17.80
2018-07-12T19:18:30.615Z,17.80
2018-07-12T19:23:33.667Z,17.80
2018-07-12T19:28:36.763Z,17.80
2018-07-12T19:33:39.867Z,17.70
2018-07-12T19:38:43.020Z,17.70
2018-07-12T19:43:46.089Z,17.70
2018-07-12T19:48:49.168Z,17.70
2018-07-12T19:53:52.229Z,17.60
2018-07-12T19:58:55.341Z,17.60
2018-07-12T20:03:58.509Z,17.60
2018-07-12T20:09:01.538Z,17.50
2018-07-12T20:14:04.635Z,17.50
2018-07-12T20:19:08.960Z,17.40
2018-07-12T20:24:12.049Z,17.40
2018-07-12T20:29:15.205Z,17.40
2018-07-12T20:34:18.260Z,17.40
2018-07-12T20:39:21.479Z,17.40
2018-07-12T20:44:24.715Z,17.40
2018-07-12T20:49:27.903Z,17.30
2018-07-12T20:54:31.135Z,17.30
2018-07-12T20:59:34.382Z,17.30
2018-07-12T21:04:37.602Z,17.30
2018-07-12T21:09:40.712Z,17.40
2018-07-12T21:19:47.827Z,17.30
2018-07-12T21:24:50.959Z,17.30
2018-07-12T21:29:53.992Z,17.30
2018-07-12T21:34:57.029Z,17.30
2018-07-12T21:40:00.119Z,17.30
2018-07-12T21:45:03.339Z,17.30
2018-07-12T21:50:06.656Z,17.30
2018-07-12T21:55:09.780Z,17.30
2018-07-12T22:00:12.959Z,17.40
2018-07-12T22:05:16.054Z,17.40
2018-07-12T22:10:19.120Z,17.40
2018-07-12T22:15:22.187Z,17.40
2018-07-12T22:20:25.327Z,17.40
2018-07-12T22:25:28.420Z,17.50
2018-07-12T22:30:32.455Z,17.40
2018-07-12T22:35:35.474Z,17.40
2018-07-12T22:40:38.558Z,17.40
2018-07-12T22:45:41.663Z,17.40
2018-07-12T22:50:44.772Z,17.40
2018-07-12T22:55:47.876Z,17.40
2018-07-12T23:00:51.106Z,17.40
2018-07-12T23:05:54.181Z,17.50
2018-07-12T23:10:57.245Z,17.40
2018-07-12T23:16:00.364Z,17.40
2018-07-12T23:21:04.265Z,17.30
2018-07-12T23:26:07.260Z,17.30
2018-07-12T23:31:10.376Z,17.20
2018-07-12T23:36:13.471Z,17.20
2018-07-12T23:46:19.488Z,17.10
2018-07-12T23:51:24.053Z,17.10
2018-07-12T23:56:27.273Z,17.20
